createdAt,value
2022-12-23T00:04:04.993Z,4.82
2022-12-23T00:06:31.834Z,4.40
2022-12-23T00:08:59.200Z,6.50
2022-12-23T00:11:27.820Z,7.97
2022-12-23T01:07:16.945Z,15.15
2022-12-23T01:09:43.709Z,23.20
2022-12-23T01:12:10.328Z,18.27
2022-12-23T01:14:37.175Z,20.17
2022-12-23T01:17:04.633Z,20.48
2022-12-23T01:19:31.362Z,24.05
2022-12-23T01:26:49.179Z,19.40
2022-12-23T01:29:15.909Z,14.35
2022-12-23T01:31:42.619Z,19.85
2022-12-23T01:34:10.547Z,16.45
2022-12-23T01:36:37.242Z,24.05
2022-12-23T01:41:51.621Z,18.00
2022-12-23T01:44:37.081Z,12.25
2022-12-23T01:47:05.181Z,15.68
2022-12-23T01:49:31.858Z,18.65
2022-12-23T01:52:00.943Z,17.58
2022-12-23T01:56:53.219Z,19.77
2022-12-23T02:04:55.317Z,20.92
2022-12-23T02:07:40.219Z,20.30
2022-12-23T02:10:07.482Z,13.35
2022-12-23T02:12:52.813Z,16.20
2022-12-23T02:18:12.797Z,13.93
2022-12-23T02:31:24.238Z,13.73
2022-12-23T02:33:57.201Z,19.83
2022-12-23T02:36:34.627Z,14.52
2022-12-23T02:46:36.577Z,20.73
2022-12-23T02:49:09.206Z,18.65
2022-12-23T02:51:38.144Z,14.40
2022-12-23T02:54:08.245Z,12.75
2022-12-23T02:56:39.778Z,23.40
2022-12-23T02:59:26.709Z,14.20
2022-12-23T03:04:19.553Z,16.13
2022-12-23T03:06:47.864Z,14.93
2022-12-23T03:11:55.139Z,16.85
2022-12-23T03:17:05.071Z,12.50
2022-12-23T03:24:46.088Z,10.02
2022-12-23T03:27:33.188Z,12.02
2022-12-23T03:34:56.044Z,12.65
2022-12-23T03:39:53.851Z,10.10
2022-12-23T03:42:27.895Z,10.43
2022-12-23T03:47:27.161Z,7.97
2022-12-23T03:52:25.293Z,6.15
2022-12-23T03:54:56.184Z,8.60
2022-12-23T03:57:26.061Z,7.68
2022-12-23T03:59:53.473Z,4.13
2022-12-23T04:02:26.137Z,7.50
2022-12-23T04:04:55.909Z,6.60
2022-12-23T04:07:25.619Z,5.88
2022-12-23T04:14:46.139Z,2.45
2022-12-23T04:19:38.417Z,2.25
2022-12-23T04:22:05.173Z,2.38
2022-12-23T04:36:38.980Z,1.58
2022-12-23T04:43:56.697Z,1.23
2022-12-23T04:46:23.528Z,3.00
2022-12-23T04:48:50.280Z,1.10
2022-12-23T04:51:16.992Z,2.78
2022-12-23T04:56:09.174Z,1.50
2022-12-23T04:58:35.910Z,1.17
2022-12-23T05:01:07.491Z,1.30
2022-12-23T05:03:34.383Z,1.00
2022-12-23T05:06:01.038Z,2.42
2022-12-23T05:08:27.764Z,0.88
2022-12-23T05:10:54.565Z,1.05
2022-12-23T05:13:21.427Z,1.55
2022-12-23T05:15:52.342Z,0.95
2022-12-23T05:18:19.146Z,2.10
2022-12-23T05:20:45.931Z,1.08
2022-12-23T05:23:12.783Z,1.58
2022-12-23T05:30:31.576Z,0.95
2022-12-23T05:32:58.583Z,1.55
2022-12-23T05:35:25.867Z,1.05
2022-12-23T05:37:52.578Z,1.35
2022-12-23T05:52:26.944Z,1.02
2022-12-23T05:54:53.648Z,3.42
2022-12-23T05:57:20.374Z,5.90
2022-12-23T06:09:29.021Z,3.55
2022-12-23T06:11:55.724Z,2.58
2022-12-23T06:14:28.365Z,4.40
2022-12-23T06:16:55.677Z,3.15
2022-12-23T06:19:22.373Z,2.53
2022-12-23T06:21:48.983Z,3.15
2022-12-23T06:24:15.582Z,1.27
2022-12-23T06:26:42.353Z,2.72
2022-12-23T06:29:08.979Z,4.13
2022-12-23T06:34:01.075Z,3.17
2022-12-23T06:36:27.791Z,1.80
2022-12-23T06:38:54.425Z,2.53
2022-12-23T06:41:21.049Z,3.45
2022-12-23T06:43:51.249Z,2.67
2022-12-23T06:48:46.387Z,13.98
2022-12-23T06:51:13.086Z,3.55
2022-12-23T06:58:31.173Z,3.03
2022-12-23T07:00:58.173Z,4.80
2022-12-23T07:03:24.996Z,2.95
2022-12-23T07:05:52.036Z,3.22
2022-12-23T07:08:19.012Z,3.53
2022-12-23T07:10:46.072Z,2.70
2022-12-23T07:13:13.442Z,3.40
2022-12-23T07:15:40.077Z,3.25
2022-12-23T07:20:32.935Z,2.30
2022-12-23T07:22:59.616Z,1.55
2022-12-23T07:30:21.288Z,1.33
2022-12-23T07:32:48.865Z,2.20
2022-12-23T07:40:08.995Z,2.40
2022-12-23T07:42:45.802Z,1.83
2022-12-23T07:45:13.133Z,1.40
2022-12-23T07:50:05.513Z,1.70
2022-12-23T07:52:32.224Z,2.50
2022-12-23T07:54:58.880Z,2.97
2022-12-23T07:57:25.696Z,1.67
2022-12-23T07:59:52.370Z,1.42
2022-12-23T08:04:46.487Z,2.53
2022-12-23T08:07:13.587Z,1.05
2022-12-23T08:09:40.318Z,0.90
2022-12-23T08:12:07.106Z,1.30
2022-12-23T08:14:33.721Z,2.00
2022-12-23T08:17:00.424Z,0.50
2022-12-23T08:19:27.250Z,1.58
2022-12-23T08:21:53.836Z,0.60
2022-12-23T08:24:20.630Z,0.50
2022-12-23T08:26:47.301Z,1.30
2022-12-23T08:29:13.971Z,2.05
2022-12-23T08:36:32.788Z,1.85
2022-12-23T08:39:00.836Z,0.85
2022-12-23T08:41:31.304Z,0.30
2022-12-23T08:43:58.007Z,1.25
2022-12-23T08:46:25.234Z,0.70
2022-12-23T08:48:52.605Z,0.85
2022-12-23T08:51:20.368Z,0.70
2022-12-23T08:53:47.654Z,0.95
2022-12-23T08:56:15.934Z,4.00
2022-12-23T08:58:44.020Z,0.73
2022-12-23T09:03:39.661Z,0.55
2022-12-23T09:06:07.666Z,0.50
2022-12-23T09:08:34.913Z,0.85
2022-12-23T09:11:01.680Z,0.60
2022-12-23T09:13:35.249Z,0.75
2022-12-23T09:16:03.222Z,1.15
2022-12-23T09:18:30.002Z,4.05
2022-12-23T09:21:00.649Z,2.97
2022-12-23T09:23:27.723Z,2.08
2022-12-23T09:25:56.923Z,1.73
2022-12-23T09:28:23.983Z,2.50
2022-12-23T09:38:08.698Z,0.77
2022-12-23T09:40:36.656Z,2.45
2022-12-23T09:45:56.180Z,2.50
2022-12-23T09:50:51.364Z,3.63
2022-12-23T09:53:19.393Z,2.65
2022-12-23T09:55:48.869Z,3.63
2022-12-23T09:58:22.850Z,2.17
2022-12-23T10:08:31.884Z,5.72
2022-12-23T10:13:39.675Z,10.48
2022-12-23T10:37:09.293Z,8.52
2022-12-23T10:39:36.026Z,10.63
2022-12-23T10:44:30.814Z,6.82
2022-12-23T10:47:16.037Z,11.13
2022-12-23T10:50:03.006Z,7.45
2022-12-23T11:03:01.484Z,6.68
2022-12-23T11:05:28.753Z,10.63
2022-12-23T11:07:55.745Z,14.38
2022-12-23T11:10:24.405Z,12.98
2022-12-23T11:12:52.500Z,10.60
2022-12-23T11:18:04.874Z,12.40
2022-12-23T11:20:32.760Z,12.25
2022-12-23T11:23:02.284Z,13.10
2022-12-23T11:30:28.907Z,11.70
2022-12-23T11:32:55.824Z,21.27
2022-12-23T11:37:58.835Z,17.60
2022-12-23T11:43:14.597Z,16.58
2022-12-23T11:45:41.353Z,16.27
2022-12-23T11:48:25.875Z,15.25
2022-12-23T11:51:03.057Z,13.98
2022-12-23T11:56:04.203Z,18.80
2022-12-23T12:06:00.997Z,19.45
2022-12-23T12:08:37.831Z,13.25
2022-12-23T12:11:13.408Z,15.57
2022-12-23T12:13:41.180Z,18.83
2022-12-23T12:16:20.928Z,18.35
2022-12-23T12:18:53.646Z,17.45
2022-12-23T12:21:24.919Z,21.25
2022-12-23T12:28:56.818Z,18.02
2022-12-23T12:31:32.709Z,16.67
2022-12-23T12:34:08.237Z,21.08
2022-12-23T12:36:34.972Z,18.45
2022-12-23T12:39:01.669Z,19.33
2022-12-23T12:41:28.685Z,15.10
2022-12-23T12:44:01.858Z,17.27
2022-12-23T12:46:37.336Z,17.42
2022-12-23T12:49:09.268Z,16.88
2022-12-23T12:51:39.037Z,19.77
2022-12-23T12:54:14.714Z,21.58
2022-12-23T13:01:53.305Z,23.77
2022-12-23T13:04:19.961Z,27.27
2022-12-23T13:06:58.800Z,18.10
2022-12-23T13:09:42.718Z,20.45
2022-12-23T13:20:49.242Z,26.63
2022-12-23T13:25:50.583Z,20.08
2022-12-23T13:28:35.928Z,25.95
2022-12-23T13:31:11.941Z,24.85
2022-12-23T13:33:49.937Z,28.60
2022-12-23T13:36:31.680Z,27.33
2022-12-23T13:44:13.046Z,25.35
2022-12-23T13:52:02.089Z,19.52
2022-12-23T13:54:37.788Z,25.42
2022-12-23T13:59:40.935Z,29.08
2022-12-23T14:02:26.389Z,26.50
2022-12-23T14:12:31.170Z,27.23
2022-12-23T14:17:45.473Z,26.17
2022-12-23T14:28:11.448Z,27.45
2022-12-23T14:30:45.143Z,22.50
2022-12-23T14:33:50.010Z,25.90
2022-12-23T14:36:24.099Z,29.05
2022-12-23T14:39:09.215Z,27.15
2022-12-23T14:41:38.988Z,26.45
2022-12-23T14:52:19.471Z,25.08
2022-12-23T14:55:06.073Z,21.45
2022-12-23T15:07:33.996Z,25.52
2022-12-23T15:10:02.412Z,22.42
2022-12-23T15:12:29.022Z,26.00
2022-12-23T15:19:56.095Z,30.02
2022-12-23T15:22:30.399Z,26.75
2022-12-23T15:27:28.360Z,33.55
2022-12-23T15:29:55.573Z,22.90
2022-12-23T15:32:23.749Z,31.10
2022-12-23T15:44:46.024Z,25.30
2022-12-23T15:47:29.644Z,33.50
2022-12-23T15:52:23.839Z,25.23
2022-12-23T15:54:56.526Z,29.05
2022-12-23T15:59:51.032Z,27.58
2022-12-23T16:07:48.820Z,22.08
2022-12-23T16:10:22.068Z,38.13
2022-12-23T16:17:46.326Z,25.75
2022-12-23T16:20:14.483Z,37.72
2022-12-23T16:22:41.209Z,24.90
2022-12-23T16:25:23.099Z,27.20
2022-12-23T16:27:54.471Z,26.70
2022-12-23T16:30:22.597Z,37.67
2022-12-23T16:35:28.475Z,27.50
2022-12-23T16:38:05.125Z,32.67
2022-12-23T16:40:31.834Z,27.48
2022-12-23T16:42:58.499Z,31.15
2022-12-23T16:45:25.404Z,25.00
2022-12-23T16:50:18.642Z,31.08
2022-12-23T16:52:45.330Z,23.55
2022-12-23T16:55:18.554Z,28.00
2022-12-23T16:57:45.222Z,29.30
2022-12-23T17:08:10.516Z,31.13
2022-12-23T17:15:29.218Z,28.98
2022-12-23T17:17:55.988Z,32.47
2022-12-23T17:20:23.330Z,32.92
2022-12-23T17:22:52.291Z,29.58
2022-12-23T17:25:26.365Z,26.08
2022-12-23T17:30:20.992Z,27.40
2022-12-23T17:42:47.980Z,27.45
2022-12-23T17:45:21.148Z,24.20
2022-12-23T17:50:13.210Z,31.65
2022-12-23T17:52:39.901Z,29.75
2022-12-23T18:09:50.866Z,37.33
2022-12-23T18:12:28.253Z,38.72
2022-12-23T18:14:55.271Z,27.25
2022-12-23T18:17:22.057Z,33.33
2022-12-23T18:19:48.662Z,37.60
2022-12-23T18:22:17.417Z,33.22
2022-12-23T18:24:44.408Z,30.73
2022-12-23T18:27:13.211Z,25.65
2022-12-23T18:29:39.959Z,39.20
2022-12-23T18:32:06.734Z,39.22
2022-12-23T18:34:33.508Z,35.88
2022-12-23T18:37:00.156Z,43.67
2022-12-23T18:39:26.827Z,35.22
2022-12-23T18:41:53.407Z,30.92
2022-12-23T18:44:20.860Z,35.92
2022-12-23T18:46:48.336Z,36.85
2022-12-23T18:49:15.696Z,29.48
2022-12-23T19:01:26.104Z,30.58
2022-12-23T19:03:52.845Z,26.30
2022-12-23T19:13:39.921Z,33.70
2022-12-23T19:16:06.731Z,33.58
2022-12-23T19:18:33.362Z,34.88
2022-12-23T19:21:03.276Z,35.45
2022-12-23T19:23:30.061Z,35.00
2022-12-23T19:25:58.196Z,37.90
2022-12-23T19:28:24.886Z,37.25
2022-12-23T19:30:52.143Z,34.53
2022-12-23T19:33:19.014Z,34.70
2022-12-23T19:43:06.105Z,31.08
2022-12-23T19:45:33.129Z,35.88
2022-12-23T19:47:59.765Z,31.13
2022-12-23T19:52:52.772Z,29.20
2022-12-23T19:55:19.499Z,47.92
2022-12-23T19:57:46.241Z,41.58
2022-12-23T20:00:13.178Z,29.40
2022-12-23T20:02:39.992Z,36.05
2022-12-23T20:09:57.648Z,36.83
2022-12-23T20:12:26.461Z,37.22
2022-12-23T20:14:53.106Z,33.65
2022-12-23T20:17:19.745Z,43.20
2022-12-23T20:22:11.816Z,38.58
2022-12-23T20:24:38.509Z,44.17
2022-12-23T20:27:10.705Z,34.00
2022-12-23T20:29:38.273Z,34.17
2022-12-23T20:32:05.146Z,48.97
2022-12-23T20:34:38.373Z,41.63
2022-12-23T20:37:06.358Z,44.55
2022-12-23T20:41:58.492Z,39.92
2022-12-23T20:44:34.399Z,47.55
2022-12-23T20:47:02.103Z,54.25
2022-12-23T20:49:28.821Z,38.33
2022-12-23T20:51:55.495Z,53.22
2022-12-23T20:59:19.665Z,36.95
2022-12-23T21:01:46.652Z,45.40
2022-12-23T21:04:15.945Z,60.60
2022-12-23T21:06:43.303Z,43.92
2022-12-23T21:31:03.356Z,51.63
2022-12-23T21:33:30.144Z,47.80
2022-12-23T21:35:56.984Z,42.47
2022-12-23T21:48:21.136Z,58.50
2022-12-23T21:50:47.933Z,51.60
2022-12-23T21:53:14.609Z,48.85
2022-12-23T21:55:41.283Z,44.20
2022-12-23T21:58:08.005Z,40.33
2022-12-23T22:15:11.650Z,47.55
2022-12-23T22:22:31.647Z,51.08
2022-12-23T22:24:59.383Z,48.38
2022-12-23T22:29:51.549Z,46.85
2022-12-23T22:32:19.758Z,46.88
2022-12-23T22:34:46.603Z,40.10
2022-12-23T22:37:13.814Z,50.88
2022-12-23T22:39:41.221Z,44.33
2022-12-23T22:44:33.659Z,46.88
2022-12-23T22:47:00.418Z,44.00
2022-12-23T22:51:52.544Z,47.85
2022-12-23T22:54:19.284Z,41.55
2022-12-23T22:59:22.558Z,39.92
2022-12-23T23:01:50.279Z,40.50
2022-12-23T23:04:17.104Z,45.60
2022-12-23T23:06:43.912Z,40.15
2022-12-23T23:09:12.712Z,40.50
2022-12-23T23:11:40.404Z,36.15
2022-12-23T23:14:07.116Z,41.72
2022-12-23T23:16:34.016Z,53.67
2022-12-23T23:19:01.431Z,43.88
2022-12-23T23:21:28.048Z,48.95
2022-12-23T23:23:54.717Z,45.85
2022-12-23T23:26:21.897Z,41.95
2022-12-23T23:28:48.578Z,48.05
2022-12-23T23:33:40.788Z,43.17
2022-12-23T23:36:07.851Z,43.67
2022-12-23T23:41:01.105Z,48.22
2022-12-23T23:43:27.856Z,57.08
2022-12-23T23:48:21.027Z,48.90
2022-12-23T23:50:47.921Z,44.40
2022-12-23T23:53:15.125Z,41.40
2022-12-23T23:55:42.140Z,39.92
2022-12-23T23:58:08.822Z,47.38
